Orland, Noorwegen

8:48 PM CEST op 28 augustus 2016 (GMT +0200)
Orland Air Base | | Change Station

Hoogte 23 ft 63.70 °N, 9.60 °E | Updated 28 minutes ago

Mostly Cloudy
Merendeels bewolkt
57 °F
Voelt als 57 °F
N
7
Wind Variabel Wind van ZO

Vandaag
Hoog -- | Laag -- °F
--% Kans op neerslag
Gisteren
Hoog -- | Laag -- °F
Precip. -- inches
Druk 29.92 inches
Zicht 6.2 mijlen
Wolken Gering 3000 ft
Merendeels bewolkt 20000 ft
Dauwpunt 48 °F
Vochtigheid 72%
Neerslag 0.00 inches
Dikte sneeuw Niet beschikbaar.
5:54 AM 8:48 PM
Afnemende halvemaan, 14% visible
METAR ENOL 281820Z 13006KT 9999 FEW030 BKN200 14/09 Q1013 NOSIG
Druk 29.92 inches
Zicht 6.2 mijlen
Wolken Gering 3000 ft
Merendeels bewolkt 20000 ft
Dauwpunt 48 °F
Vochtigheid 72%
Neerslag 0.00 inches
Dikte sneeuw Niet beschikbaar.
5:54 AM 8:48 PM
Afnemende halvemaan, 14% visible
METAR ENOL 281820Z 13006KT 9999 FEW030 BKN200 14/09 Q1013 NOSIG

10-Day Weather Forecast

×

Almanac

Astronomie

Aug. 28, 2016 Opkomst Ondergang
Werkelijke tijd
Burgerlijke schemering
Nautische schemering
Astronomische schemering
Maan
Golflengte van het zichtbare licht
Daglengte
Tomorrow will be .
, % of the Moon is Illuminated

Extremen vandaag

Country Highs Country Lows

Community

WunderPhotos

Upload Photos

1,935,647 foto’s ge-upload!

WunderBlog® & News

Nearby

Luchtkwaliteit

  Luchtkwaliteit LK-index Verontreinigende stof
Not available.

Dikte sneeuw

Station Depth Geometrische hoogte

Aardbevingen

Stad Distance Mag. Time & Date
Minimum magnitude displayed is 2.5.

Watertemperatuur langs de kust

Plaats Temperatuur

Stations

Nabije weerstations

Locatie station Temp. Gevoelstemperatuur Dauwpunt Vochtigheid Wind Precip. Hoogte Geactualiseerd Type